Time;durP1;ratioP1;P1;durP2;ratioP2;P2;SDS_P1;SDS_P2;PMS_P1;PMS_P2;Temp;Humidity;BMP_temperature;BMP_pressure;BME280_temperature;BME280_humidity;BME280_pressure;Samples;Min_cycle;Max_cycle;Signal;HPM_P1;HPM_P2
2022/07/12 00:01:07;;;;;;;1.98;0.95;;;17.50;63.70;;;;;;5016132;28;20086;-67
2022/07/12 00:03:33;;;;;;;1.83;0.70;;;17.50;63.80;;;;;;5016990;28;20041;-67
2022/07/12 00:06:00;;;;;;;0.70;0.70;;;17.40;63.60;;;;;;5014402;28;20041;-67
2022/07/12 00:08:26;;;;;;;1.25;0.77;;;17.40;63.60;;;;;;4999910;28;20048;-67
2022/07/12 00:10:51;;;;;;;0.98;0.88;;;17.40;63.70;;;;;;5016665;28;20037;-67
2022/07/12 00:13:17;;;;;;;1.08;0.98;;;17.40;63.90;;;;;;5034478;28;20092;-67
2022/07/12 00:15:44;;;;;;;1.20;1.00;;;17.30;63.90;;;;;;5032189;28;20038;-67
2022/07/12 00:18:10;;;;;;;2.15;1.70;;;17.30;64.00;;;;;;5015817;28;20501;-67
2022/07/12 00:20:37;;;;;;;2.15;1.60;;;17.20;64.00;;;;;;5034108;28;20045;-67
2022/07/12 00:23:03;;;;;;;1.90;1.50;;;17.30;64.00;;;;;;5016877;28;20477;-68
2022/07/12 00:25:29;;;;;;;2.20;1.70;;;17.20;63.80;;;;;;5015640;28;20050;-68
2022/07/12 00:27:55;;;;;;;2.15;1.20;;;17.20;63.60;;;;;;5016468;28;20041;-68
2022/07/12 00:30:21;;;;;;;1.60;1.40;;;17.10;63.70;;;;;;5016543;28;20034;-68
2022/07/12 00:32:48;;;;;;;3.13;1.10;;;17.10;64.00;;;;;;5015432;28;20041;-68
2022/07/12 00:35:14;;;;;;;1.00;0.90;;;17.00;64.10;;;;;;4998387;28;20041;-68
2022/07/12 00:37:40;;;;;;;1.58;1.20;;;17.00;64.30;;;;;;5016653;28;20037;-69
2022/07/12 00:40:08;;;;;;;2.25;1.17;;;17.00;64.30;;;;;;5016399;28;20480;-68
2022/07/12 00:42:35;;;;;;;1.40;1.10;;;17.00;64.30;;;;;;5016287;28;20144;-67
2022/07/12 00:45:02;;;;;;;1.70;1.27;;;17.00;64.40;;;;;;5014699;28;20722;-67
2022/07/12 00:47:43;;;;;;;1.42;0.93;;;16.90;64.30;;;;;;5016045;28;20501;-68
2022/07/12 00:50:17;;;;;;;1.23;0.93;;;16.90;64.40;;;;;;5016315;28;20091;-68
2022/07/12 00:52:45;;;;;;;1.52;1.20;;;16.90;64.50;;;;;;5015772;28;20045;-68
2022/07/12 00:55:12;;;;;;;1.65;0.90;;;16.80;64.50;;;;;;5033172;28;20033;-68
2022/07/12 00:57:39;;;;;;;1.17;0.90;;;16.80;64.50;;;;;;5016095;28;20041;-68
2022/07/12 01:00:08;;;;;;;1.30;0.80;;;16.80;64.50;;;;;;5014710;28;20045;-68
2022/07/12 01:02:36;;;;;;;1.00;0.90;;;16.80;64.50;;;;;;5015773;28;20061;-68
2022/07/12 01:05:04;;;;;;;1.00;0.80;;;16.80;64.50;;;;;;5015925;28;20050;-68
2022/07/12 01:07:30;;;;;;;0.77;0.73;;;16.70;64.30;;;;;;5004301;28;20054;-68
2022/07/12 01:09:56;;;;;;;1.02;0.70;;;16.70;64.30;;;;;;5013623;28;20550;-68
2022/07/12 01:12:23;;;;;;;1.02;0.68;;;16.70;64.20;;;;;;5016007;28;20042;-68
2022/07/12 01:14:50;;;;;;;1.10;0.70;;;16.70;64.20;;;;;;5015677;28;20053;-68
2022/07/12 01:17:20;;;;;;;1.20;0.65;;;16.70;64.20;;;;;;5014891;28;20123;-69
2022/07/12 01:19:46;;;;;;;1.02;0.60;;;16.60;64.10;;;;;;5015199;28;20045;-68
2022/07/12 01:22:15;;;;;;;0.90;0.70;;;16.60;64.10;;;;;;5014635;28;20107;-69
2022/07/12 01:24:42;;;;;;;0.70;0.68;;;16.60;64.10;;;;;;5015402;28;20492;-68
2022/07/12 01:27:08;;;;;;;1.02;0.80;;;16.60;64.00;;;;;;5014789;28;20048;-68
2022/07/12 01:29:35;;;;;;;0.63;0.60;;;16.50;63.80;;;;;;5032050;28;20043;-68
2022/07/12 01:34:52;;;;;;;1.08;0.98;;;16.50;63.90;;;;;;5000854;28;20136;-67
2022/07/12 01:37:19;;;;;;;0.98;0.80;;;16.50;63.90;;;;;;5032676;28;20111;-64
2022/07/12 01:39:46;;;;;;;1.17;0.90;;;16.40;63.80;;;;;;5033265;28;20049;-64
2022/07/12 01:42:12;;;;;;;0.60;0.60;;;16.40;63.90;;;;;;5014315;28;20130;-64
2022/07/12 01:44:38;;;;;;;1.20;0.80;;;16.40;64.00;;;;;;5015064;28;20062;-63
2022/07/12 01:47:04;;;;;;;0.82;0.70;;;16.40;64.10;;;;;;5028908;28;20045;-65
2022/07/12 01:49:30;;;;;;;0.70;0.57;;;16.30;64.10;;;;;;5014784;28;20290;-64
2022/07/12 01:51:57;;;;;;;0.82;0.73;;;16.30;64.10;;;;;;5014856;28;20473;-65
2022/07/12 01:54:24;;;;;;;0.80;0.60;;;16.30;64.20;;;;;;5015049;28;20481;-64
2022/07/12 01:56:51;;;;;;;0.93;0.70;;;16.30;64.30;;;;;;5030848;28;20124;-65
2022/07/12 01:59:17;;;;;;;1.23;1.02;;;16.20;64.70;;;;;;5015414;28;20059;-64
2022/07/12 02:01:45;;;;;;;2.10;1.20;;;16.20;64.20;;;;;;5015054;28;20034;-65
2022/07/12 02:04:10;;;;;;;1.50;1.08;;;16.20;64.10;;;;;;4993869;28;20084;-65
2022/07/12 02:06:38;;;;;;;2.83;1.70;;;16.20;64.10;;;;;;5008447;28;20045;-65
2022/07/12 02:09:04;;;;;;;3.08;1.90;;;16.10;64.20;;;;;;5015055;28;20492;-65
2022/07/12 02:11:30;;;;;;;2.25;1.65;;;16.10;64.30;;;;;;5013395;28;20041;-65
2022/07/12 02:13:57;;;;;;;1.70;1.13;;;16.10;64.10;;;;;;5015153;28;20405;-65
2022/07/12 02:16:22;;;;;;;2.25;1.13;;;16.00;64.10;;;;;;5014059;28;20046;-64
2022/07/12 02:18:48;;;;;;;1.48;0.80;;;16.00;64.10;;;;;;4998213;28;20414;-64
2022/07/12 02:21:13;;;;;;;1.45;0.90;;;16.00;64.40;;;;;;5013442;28;20143;-65
2022/07/12 02:23:39;;;;;;;0.98;0.55;;;15.90;64.40;;;;;;5001449;28;20064;-65
2022/07/12 02:26:05;;;;;;;0.77;0.70;;;15.90;64.60;;;;;;5018262;28;20390;-65
2022/07/12 02:28:31;;;;;;;0.82;0.80;;;15.90;64.80;;;;;;5018603;28;20100;-65
2022/07/12 02:30:57;;;;;;;1.90;0.77;;;15.80;64.90;;;;;;5001191;28;20048;-65
2022/07/12 02:33:23;;;;;;;1.52;1.10;;;15.80;65.00;;;;;;5002289;28;20095;-65
2022/07/12 02:35:49;;;;;;;0.88;0.75;;;15.80;65.10;;;;;;5018333;28;20029;-64
2022/07/12 02:38:15;;;;;;;0.85;0.73;;;15.80;65.20;;;;;;5001822;28;20045;-68
2022/07/12 02:40:53;;;;;;;2.03;1.00;;;15.70;65.30;;;;;;5035724;28;20120;-68
2022/07/12 02:43:22;;;;;;;1.30;0.82;;;15.80;65.40;;;;;;5002979;28;20200;-68
2022/07/12 02:45:48;;;;;;;1.75;0.90;;;15.70;65.40;;;;;;5019033;28;20056;-68
2022/07/12 02:48:14;;;;;;;1.17;0.85;;;15.70;65.40;;;;;;5035406;28;20485;-68
2022/07/12 02:50:40;;;;;;;1.15;0.95;;;15.70;65.40;;;;;;5017498;28;20044;-68
2022/07/12 02:53:07;;;;;;;1.20;1.02;;;15.70;65.50;;;;;;5035652;28;20087;-69
2022/07/12 02:55:33;;;;;;;1.10;0.73;;;15.70;65.40;;;;;;5036268;28;20073;-69
2022/07/12 02:57:58;;;;;;;1.00;0.57;;;15.70;65.30;;;;;;5017845;28;20057;-68
2022/07/12 03:00:24;;;;;;;1.05;0.70;;;15.70;65.40;;;;;;5035348;28;20612;-68
2022/07/12 03:02:50;;;;;;;1.10;0.90;;;15.70;65.40;;;;;;5035099;28;20037;-69
2022/07/12 03:05:16;;;;;;;1.38;1.10;;;15.70;65.40;;;;;;5035503;28;20092;-69
2022/07/12 03:07:42;;;;;;;1.20;1.00;;;15.70;65.40;;;;;;5017601;28;20041;-68
2022/07/12 03:10:08;;;;;;;1.55;0.70;;;15.60;65.30;;;;;;5033661;28;20075;-68
2022/07/12 03:12:34;;;;;;;1.23;0.88;;;15.60;65.40;;;;;;5001633;28;20037;-68
2022/07/12 03:15:01;;;;;;;1.20;1.00;;;15.60;65.40;;;;;;5017057;28;20061;-68
2022/07/12 03:17:26;;;;;;;0.88;0.80;;;15.60;65.50;;;;;;5018012;28;20503;-68
2022/07/12 03:19:52;;;;;;;1.10;0.82;;;15.60;65.50;;;;;;5016529;28;20073;-68
2022/07/12 03:22:18;;;;;;;1.95;0.80;;;15.60;65.50;;;;;;5017938;28;20042;-68
2022/07/12 03:24:43;;;;;;;1.02;0.60;;;15.60;65.50;;;;;;5016985;28;20048;-68
2022/07/12 03:27:09;;;;;;;1.25;0.85;;;15.60;65.40;;;;;;5017407;28;20049;-69
2022/07/12 03:29:36;;;;;;;1.73;1.05;;;15.60;65.30;;;;;;5017129;28;20049;-68
2022/07/12 03:32:02;;;;;;;1.52;1.15;;;15.60;65.20;;;;;;5017431;28;20075;-68
2022/07/12 03:34:28;;;;;;;1.17;0.70;;;15.60;64.60;;;;;;5017274;28;20041;-68
2022/07/12 03:36:54;;;;;;;1.70;1.20;;;15.50;64.60;;;;;;5016526;28;20041;-68
2022/07/12 03:39:19;;;;;;;1.70;1.10;;;15.50;64.60;;;;;;5000799;28;20045;-69
2022/07/12 03:41:45;;;;;;;1.00;0.80;;;15.40;64.60;;;;;;5016820;28;20392;-69
2022/07/12 03:44:10;;;;;;;0.88;0.70;;;15.40;64.70;;;;;;5016719;28;20057;-69
2022/07/12 03:46:36;;;;;;;0.82;0.70;;;15.40;64.90;;;;;;5017426;28;20099;-69
2022/07/12 03:49:02;;;;;;;1.10;0.82;;;15.40;65.10;;;;;;5016584;28;20049;-69
2022/07/12 03:51:28;;;;;;;0.90;0.80;;;15.30;65.30;;;;;;5014179;28;20121;-69
2022/07/12 03:53:53;;;;;;;1.40;1.13;;;15.30;65.40;;;;;;5007630;28;20076;-68
2022/07/12 03:59:03;;;;;;;0.80;0.68;;;15.30;65.60;;;;;;5015272;28;20476;-69
2022/07/12 04:01:29;;;;;;;1.60;1.08;;;15.30;65.70;;;;;;5034697;28;20037;-69
2022/07/12 04:03:56;;;;;;;1.40;1.10;;;15.30;65.80;;;;;;5016006;28;20473;-68
2022/07/12 04:06:22;;;;;;;1.20;0.93;;;15.30;65.90;;;;;;5016786;28;20055;-68
2022/07/12 04:08:47;;;;;;;1.40;1.02;;;15.20;65.90;;;;;;4999632;28;20033;-69
2022/07/12 04:11:13;;;;;;;3.10;1.00;;;15.20;66.00;;;;;;5034531;28;20125;-68
2022/07/12 04:13:39;;;;;;;0.82;0.70;;;15.20;66.10;;;;;;5016399;28;20060;-68
2022/07/12 04:16:05;;;;;;;0.85;0.70;;;15.30;66.10;;;;;;5012954;28;20049;-69
2022/07/12 04:18:31;;;;;;;0.90;0.73;;;15.30;66.00;;;;;;5015627;28;20358;-69
2022/07/12 04:20:58;;;;;;;1.73;1.10;;;15.30;65.90;;;;;;5013354;28;20112;-68
2022/07/12 04:23:24;;;;;;;1.83;0.90;;;15.30;65.80;;;;;;5016195;28;20053;-65
2022/07/12 04:25:51;;;;;;;1.40;1.17;;;15.30;65.70;;;;;;5016431;28;20408;-65
2022/07/12 04:28:16;;;;;;;2.85;1.10;;;15.30;65.70;;;;;;5015208;28;20076;-64
2022/07/12 04:30:44;;;;;;;1.48;1.00;;;15.30;65.70;;;;;;5032924;28;20464;-65
2022/07/12 04:33:10;;;;;;;1.40;1.10;;;15.30;65.60;;;;;;5015622;28;20439;-65
2022/07/12 04:35:36;;;;;;;1.67;1.20;;;15.30;65.30;;;;;;4999819;28;20069;-65
2022/07/12 04:38:02;;;;;;;2.25;1.25;;;15.30;65.20;;;;;;5015522;28;20103;-65
2022/07/12 04:40:28;;;;;;;0.80;0.68;;;15.30;65.00;;;;;;5015235;28;20102;-65
2022/07/12 04:42:54;;;;;;;1.80;1.10;;;15.30;65.30;;;;;;5016188;28;20515;-65
2022/07/12 04:45:20;;;;;;;2.50;1.58;;;15.30;65.50;;;;;;5014617;28;20049;-65
2022/07/12 04:47:46;;;;;;;2.20;1.73;;;15.30;65.50;;;;;;5032948;28;20049;-65
2022/07/12 04:50:12;;;;;;;2.30;1.80;;;15.20;65.60;;;;;;5014298;28;20041;-65
2022/07/12 04:52:37;;;;;;;1.83;1.50;;;15.20;65.90;;;;;;5016369;28;20081;-65
2022/07/12 04:55:05;;;;;;;2.20;1.40;;;15.20;66.30;;;;;;5015252;28;20488;-65
2022/07/12 04:57:30;;;;;;;1.95;1.10;;;15.20;66.80;;;;;;5016366;28;20102;-69
2022/07/12 04:59:56;;;;;;;2.25;1.30;;;15.20;67.20;;;;;;5014243;28;20041;-69
2022/07/12 05:02:22;;;;;;;2.13;1.30;;;15.20;67.40;;;;;;5014260;28;20052;-69
2022/07/12 05:04:47;;;;;;;1.73;1.38;;;15.20;67.70;;;;;;5015820;28;20060;-70
2022/07/12 05:07:13;;;;;;;1.60;1.30;;;15.20;68.00;;;;;;5015784;28;20404;-69
2022/07/12 05:09:39;;;;;;;2.78;2.38;;;15.20;68.50;;;;;;5015112;28;20519;-69
2022/07/12 05:12:05;;;;;;;3.42;2.92;;;15.30;69.10;;;;;;5014961;28;20041;-69
2022/07/12 05:14:31;;;;;;;2.97;2.45;;;15.30;70.00;;;;;;5015074;28;20046;-69
2022/07/12 05:16:57;;;;;;;3.17;2.47;;;15.40;70.90;;;;;;4998980;28;20447;-69
2022/07/12 05:19:23;;;;;;;3.15;2.60;;;15.50;72.30;;;;;;5014478;28;20129;-69
2022/07/12 05:21:49;;;;;;;2.83;2.47;;;15.80;73.20;;;;;;5015256;28;20177;-69
2022/07/12 05:24:15;;;;;;;2.85;2.28;;;16.20;73.30;;;;;;5013694;28;20049;-69
2022/07/12 05:26:41;;;;;;;3.58;2.67;;;16.70;73.10;;;;;;5013244;28;20047;-70
2022/07/12 05:29:07;;;;;;;3.13;2.63;;;17.10;72.40;;;;;;5031865;28;20095;-69
2022/07/12 05:31:33;;;;;;;3.70;3.17;;;17.40;71.70;;;;;;5010963;28;20041;-69
2022/07/12 05:33:59;;;;;;;3.45;3.00;;;17.60;71.00;;;;;;5015328;28;20480;-69
2022/07/12 05:36:25;;;;;;;3.78;3.35;;;17.80;70.50;;;;;;5014726;28;20116;-69
2022/07/12 05:38:50;;;;;;;3.70;2.95;;;17.90;70.10;;;;;;5014495;28;20118;-69
2022/07/12 05:41:16;;;;;;;4.18;3.13;;;18.00;69.90;;;;;;5014170;28;20057;-69
2022/07/12 05:43:42;;;;;;;4.68;3.42;;;18.00;69.70;;;;;;5015258;28;20083;-69
2022/07/12 05:46:08;;;;;;;4.05;3.25;;;18.10;69.80;;;;;;5014337;28;20405;-69
2022/07/12 05:48:34;;;;;;;5.97;3.60;;;18.10;69.70;;;;;;5013782;28;20041;-69
2022/07/12 05:53:21;;;;;;;3.47;3.13;;;18.10;69.80;;;;;;5031604;28;20037;-69
2022/07/12 05:53:46;;;;;;;5.22;3.80;;;18.10;70.00;;;;;;5013910;28;20485;-65
2022/07/12 05:56:12;;;;;;;5.60;4.10;;;18.10;70.10;;;;;;5010321;28;20125;-65
2022/07/12 05:58:38;;;;;;;5.10;3.58;;;18.10;70.20;;;;;;4997518;28;20122;-65
2022/07/12 06:01:03;;;;;;;3.85;3.10;;;18.20;70.30;;;;;;5007233;28;20508;-68
2022/07/12 06:03:29;;;;;;;3.10;2.80;;;18.20;70.10;;;;;;5014709;28;20048;-66
2022/07/12 06:05:55;;;;;;;3.92;3.10;;;18.30;70.20;;;;;;5014764;28;20122;-66
2022/07/12 06:08:20;;;;;;;3.10;2.80;;;18.40;70.30;;;;;;5014796;28;20115;-68
2022/07/12 06:10:46;;;;;;;3.88;3.10;;;18.40;70.10;;;;;;5031672;28;20488;-67
2022/07/12 06:13:12;;;;;;;3.22;2.92;;;18.50;70.00;;;;;;5008899;28;20038;-66
2022/07/12 06:15:37;;;;;;;3.30;3.00;;;18.60;70.00;;;;;;4991660;28;20501;-67
2022/07/12 06:18:03;;;;;;;3.50;3.13;;;18.60;70.00;;;;;;5013847;28;20384;-68
2022/07/12 06:20:29;;;;;;;3.40;3.10;;;18.80;69.90;;;;;;4997972;28;20050;-67
2022/07/12 06:22:55;;;;;;;3.78;3.03;;;18.80;69.70;;;;;;5031033;28;20088;-70
2022/07/12 06:25:21;;;;;;;3.28;2.95;;;18.90;69.60;;;;;;5013833;28;20103;-71
2022/07/12 06:56:10;;;;;;;3.25;2.95;;;19.70;67.40;;;;;;5129640;27;20424;-69
2022/07/12 06:58:36;;;;;;;3.47;2.88;;;21.80;63.40;;;;;;5111965;28;20051;-71
2022/07/12 07:01:01;;;;;;;2.35;1.92;;;21.90;63.30;;;;;;5129383;28;20398;-70
2022/07/12 07:03:27;;;;;;;3.00;1.92;;;22.10;63.70;;;;;;5127644;28;20503;-71
2022/07/12 07:05:53;;;;;;;2.50;2.03;;;22.50;63.10;;;;;;5112189;28;20043;-71
2022/07/12 07:08:18;;;;;;;5.63;2.83;;;22.90;62.00;;;;;;5130079;27;20042;-70
2022/07/12 07:10:44;;;;;;;3.50;2.72;;;23.20;61.00;;;;;;5127602;27;20148;-70
2022/07/12 07:13:10;;;;;;;3.55;2.22;;;23.50;60.20;;;;;;5127768;28;20148;-70
2022/07/12 07:15:39;;;;;;;5.80;2.78;;;23.60;59.60;;;;;;5129088;28;20126;-70
2022/07/12 07:18:04;;;;;;;2.60;2.38;;;23.80;59.20;;;;;;5128841;28;20042;-70
2022/07/12 07:20:30;;;;;;;4.97;2.63;;;23.90;58.80;;;;;;5110019;28;20399;-70
2022/07/12 07:22:56;;;;;;;3.00;2.53;;;24.10;58.80;;;;;;5129146;28;20035;-70
2022/07/12 07:25:22;;;;;;;2.63;2.00;;;24.20;58.60;;;;;;5106848;28;20071;-70
2022/07/12 07:27:47;;;;;;;2.33;2.10;;;24.30;58.10;;;;;;5109656;27;20078;-70
2022/07/12 07:32:57;;;;;;;4.97;2.65;;;24.50;58.00;;;;;;5104945;28;20043;-71
2022/07/12 07:35:23;;;;;;;4.57;2.75;;;24.60;57.10;;;;;;5110917;28;20476;-68
2022/07/12 07:37:49;;;;;;;2.67;1.58;;;24.60;57.10;;;;;;5108557;28;20391;-68
2022/07/12 07:40:14;;;;;;;4.32;2.30;;;24.60;57.00;;;;;;5109532;28;20576;-68
2022/07/12 07:42:40;;;;;;;4.80;2.17;;;24.60;57.40;;;;;;5113599;28;20134;-68
2022/07/12 07:45:07;;;;;;;4.10;3.08;;;24.80;57.20;;;;;;5106992;28;20051;-68
2022/07/12 07:47:46;;;;;;;4.22;2.42;;;25.00;56.70;;;;;;5107800;28;20075;-68
2022/07/12 07:50:11;;;;;;;2.92;1.98;;;25.10;56.50;;;;;;5108565;28;20032;-69
2022/07/12 07:52:37;;;;;;;2.47;1.90;;;25.20;56.60;;;;;;5106203;28;20093;-69
2022/07/12 07:55:03;;;;;;;2.42;1.73;;;25.40;56.40;;;;;;5105861;28;20079;-68
2022/07/12 07:57:29;;;;;;;2.40;1.95;;;25.50;55.70;;;;;;5093340;28;20071;-68
2022/07/12 07:59:55;;;;;;;4.03;2.70;;;25.60;55.70;;;;;;5093853;28;20071;-68
2022/07/12 08:02:20;;;;;;;2.40;2.10;;;25.70;55.30;;;;;;5092226;28;20044;-68
2022/07/12 08:04:46;;;;;;;2.40;2.08;;;25.70;54.80;;;;;;5093167;28;20058;-68
2022/07/12 08:07:12;;;;;;;3.78;2.10;;;25.70;54.90;;;;;;5095707;28;20130;-68
2022/07/12 08:09:37;;;;;;;2.38;1.90;;;25.70;55.30;;;;;;5096641;28;20377;-68
2022/07/12 08:12:04;;;;;;;1.90;1.65;;;25.80;55.20;;;;;;5093973;28;20039;-68
2022/07/12 08:14:29;;;;;;;4.57;1.60;;;25.90;55.10;;;;;;5075721;28;20047;-68
2022/07/12 08:16:55;;;;;;;3.63;1.75;;;26.10;54.70;;;;;;5092192;28;20040;-68
2022/07/12 08:19:20;;;;;;;3.78;1.80;;;26.20;54.50;;;;;;5091101;28;20404;-67
2022/07/12 08:21:46;;;;;;;3.17;2.00;;;26.20;54.10;;;;;;5093864;28;20036;-67
2022/07/12 08:24:12;;;;;;;4.40;1.92;;;26.30;54.10;;;;;;5093913;28;20095;-68
2022/07/12 08:26:39;;;;;;;2.92;1.23;;;26.30;54.10;;;;;;5094622;28;20046;-68
2022/07/12 08:29:05;;;;;;;2.92;1.75;;;26.30;53.70;;;;;;5093644;28;20048;-68
2022/07/12 08:31:31;;;;;;;2.45;1.55;;;26.40;53.90;;;;;;5094101;28;20036;-68
2022/07/12 08:33:56;;;;;;;1.98;1.70;;;26.40;54.00;;;;;;5095403;28;20047;-68
2022/07/12 08:36:22;;;;;;;1.52;1.30;;;26.50;53.80;;;;;;5089980;28;20100;-68
2022/07/12 08:38:48;;;;;;;2.35;1.40;;;26.50;53.80;;;;;;5092280;28;20054;-68
2022/07/12 08:41:14;;;;;;;3.60;2.03;;;26.70;53.40;;;;;;5093841;28;20049;-68
2022/07/12 08:43:41;;;;;;;3.97;2.30;;;26.70;53.00;;;;;;5107301;28;20176;-68
2022/07/12 08:46:11;;;;;;;2.10;1.90;;;26.80;52.40;;;;;;5096184;28;20063;-69
2022/07/12 08:48:37;;;;;;;5.07;2.10;;;26.90;52.50;;;;;;5090600;28;20130;-68
2022/07/12 08:51:17;;;;;;;2.22;1.95;;;27.00;52.60;;;;;;5078995;28;20044;-67
2022/07/12 08:53:43;;;;;;;3.90;2.15;;;27.10;52.60;;;;;;5092346;28;20043;-68
2022/07/12 08:56:33;;;;;;;2.20;1.90;;;27.40;52.50;;;;;;5092384;28;20396;-68
2022/07/12 08:59:15;;;;;;;1.70;1.52;;;27.60;51.60;;;;;;5096804;28;20468;-69
2022/07/12 09:01:45;;;;;;;3.60;2.20;;;27.70;50.90;;;;;;5092141;27;20048;-69
2022/07/12 09:04:25;;;;;;;3.05;2.05;;;27.80;50.80;;;;;;5077431;28;20065;-68
2022/07/12 09:06:51;;;;;;;3.50;1.80;;;27.90;50.80;;;;;;5092450;28;20043;-68
2022/07/12 09:09:35;;;;;;;3.20;1.50;;;28.10;50.60;;;;;;5091772;28;20054;-68
2022/07/12 09:12:01;;;;;;;2.95;2.00;;;28.20;50.50;;;;;;5092372;28;20085;-69
2022/07/12 09:14:27;;;;;;;2.53;1.80;;;28.30;50.20;;;;;;5103126;28;20031;-69
2022/07/12 09:17:04;;;;;;;3.83;2.30;;;28.40;50.30;;;;;;5092627;28;20108;-68
2022/07/12 09:19:31;;;;;;;2.63;2.13;;;28.50;49.90;;;;;;5097108;28;20558;-69
2022/07/12 09:21:57;;;;;;;2.40;1.70;;;28.60;49.20;;;;;;5095453;28;20707;-68
2022/07/12 09:24:27;;;;;;;2.28;1.70;;;28.60;49.40;;;;;;5077762;28;20047;-67
2022/07/12 09:26:59;;;;;;;4.30;2.22;;;28.70;49.30;;;;;;5075401;28;20046;-67
2022/07/12 09:29:25;;;;;;;4.00;2.40;;;28.80;49.10;;;;;;5101252;28;20083;-68
2022/07/12 09:37:23;;;;;;;1.65;1.55;;;29.10;48.20;;;;;;5096388;28;20090;-68
2022/07/12 09:39:52;;;;;;;2.60;1.90;;;29.20;48.20;;;;;;5093530;28;20048;-67
2022/07/12 09:42:18;;;;;;;3.05;2.25;;;29.20;47.90;;;;;;5092446;28;20163;-67
2022/07/12 09:44:45;;;;;;;3.47;1.83;;;29.30;47.60;;;;;;5098335;28;20446;-67
2022/07/12 09:47:13;;;;;;;3.80;2.67;;;29.40;47.60;;;;;;5092658;28;20118;-67
2022/07/12 09:49:39;;;;;;;2.40;2.08;;;29.50;47.40;;;;;;5092110;28;20469;-68
2022/07/12 09:52:06;;;;;;;3.65;2.05;;;29.60;47.00;;;;;;5074581;28;20035;-67
2022/07/12 09:54:38;;;;;;;3.50;2.40;;;29.60;46.60;;;;;;5073522;28;20461;-68
2022/07/12 09:57:08;;;;;;;3.35;2.28;;;29.60;46.10;;;;;;5092255;28;20036;-68
2022/07/12 09:59:36;;;;;;;3.50;1.90;;;29.60;46.60;;;;;;5092249;28;20112;-71
2022/07/12 10:02:05;;;;;;;4.13;1.95;;;29.60;46.30;;;;;;5092717;28;21486;-71
2022/07/12 10:04:32;;;;;;;2.88;1.50;;;29.60;45.90;;;;;;5091087;28;20457;-71
2022/07/12 10:06:58;;;;;;;3.80;2.60;;;29.60;46.00;;;;;;5081374;28;20109;-70
2022/07/12 10:09:25;;;;;;;3.42;3.05;;;29.60;46.20;;;;;;5091207;28;20039;-71
2022/07/12 10:11:52;;;;;;;4.07;2.70;;;29.70;45.90;;;;;;5093080;28;20527;-72
2022/07/12 10:14:18;;;;;;;2.95;2.00;;;29.70;46.60;;;;;;5091279;28;20439;-71
2022/07/12 10:16:45;;;;;;;2.20;2.00;;;29.80;47.00;;;;;;5087220;28;20043;-71
2022/07/12 10:19:24;;;;;;;2.75;1.92;;;29.80;47.20;;;;;;5085056;28;20410;-71
2022/07/12 10:21:55;;;;;;;2.78;1.60;;;30.00;46.60;;;;;;5103888;28;20043;-70
2022/07/12 10:24:33;;;;;;;1.95;1.70;;;30.00;45.30;;;;;;5111351;28;20043;-67
2022/07/12 10:27:14;;;;;;;4.22;2.40;;;30.10;45.10;;;;;;5103451;28;20039;-68
2022/07/12 10:29:44;;;;;;;2.42;1.70;;;30.10;44.20;;;;;;5112096;28;20067;-68
2022/07/12 10:32:33;;;;;;;3.30;1.38;;;30.00;44.60;;;;;;5091367;28;20044;-68
2022/07/12 10:34:59;;;;;;;2.20;1.60;;;30.10;45.50;;;;;;5090267;28;20125;-63
2022/07/12 10:37:25;;;;;;;3.83;1.50;;;30.10;44.90;;;;;;5091913;28;20040;-64
2022/07/12 10:40:13;;;;;;;2.58;2.17;;;30.10;44.70;;;;;;5092116;28;20047;-64
2022/07/12 10:42:40;;;;;;;1.75;1.50;;;30.10;45.40;;;;;;5089835;28;20059;-63
2022/07/12 10:45:15;;;;;;;1.92;1.45;;;30.20;45.20;;;;;;5088719;28;20050;-65
2022/07/12 10:48:13;;;;;;;1.38;1.27;;;30.20;44.70;;;;;;5095873;28;20119;-64
2022/07/12 10:51:00;;;;;;;3.88;1.20;;;30.30;45.40;;;;;;5069902;28;20048;-65
2022/07/12 10:53:42;;;;;;;4.03;1.35;;;30.30;44.80;;;;;;5107109;28;20364;-65
2022/07/12 10:56:27;;;;;;;1.52;0.77;;;30.30;44.10;;;;;;5091928;28;20552;-65
2022/07/12 10:58:58;;;;;;;1.90;1.20;;;30.30;43.00;;;;;;5074503;28;20044;-64
2022/07/12 11:01:25;;;;;;;1.15;0.90;;;30.40;43.20;;;;;;5075329;28;20040;-65
2022/07/12 11:04:13;;;;;;;1.73;1.08;;;30.40;42.70;;;;;;5076512;28;20141;-64
2022/07/12 11:06:41;;;;;;;1.30;1.10;;;30.40;42.60;;;;;;5092867;28;20046;-65
2022/07/12 11:09:09;;;;;;;2.05;0.82;;;30.40;43.00;;;;;;5100122;28;20392;-65
2022/07/12 11:11:44;;;;;;;1.08;0.70;;;30.40;42.70;;;;;;5091127;28;20028;-65
2022/07/12 11:14:11;;;;;;;0.88;0.55;;;30.30;42.50;;;;;;5091274;28;20080;-65
2022/07/12 11:16:47;;;;;;;3.10;1.20;;;30.20;42.00;;;;;;5100328;28;20073;-65
2022/07/12 11:19:13;;;;;;;1.10;0.90;;;30.20;42.30;;;;;;5090246;28;20146;-64
2022/07/12 11:21:42;;;;;;;1.58;1.30;;;30.10;42.50;;;;;;5090342;28;20130;-65
2022/07/12 11:24:17;;;;;;;1.35;1.00;;;30.00;42.90;;;;;;5094991;28;20488;-65
2022/07/12 11:26:43;;;;;;;1.73;0.90;;;29.90;43.30;;;;;;5089619;28;20044;-64
2022/07/12 11:29:09;;;;;;;2.08;1.50;;;29.80;43.10;;;;;;5073520;28;20039;-64
2022/07/12 11:31:35;;;;;;;1.85;1.00;;;29.70;43.20;;;;;;5076553;28;20098;-65
2022/07/12 11:34:01;;;;;;;1.27;0.73;;;29.70;43.60;;;;;;5077111;28;20044;-65
2022/07/12 11:36:29;;;;;;;1.27;1.00;;;29.60;44.10;;;;;;5093262;28;20046;-64
2022/07/12 11:38:54;;;;;;;1.83;0.70;;;29.60;44.30;;;;;;5103684;28;20051;-67
2022/07/12 11:41:22;;;;;;;1.23;0.63;;;29.60;44.30;;;;;;5103828;28;20404;-65
2022/07/12 11:43:48;;;;;;;1.25;0.75;;;29.60;44.00;;;;;;5114653;28;20071;-66
2022/07/12 11:46:14;;;;;;;1.38;0.80;;;29.70;43.70;;;;;;5102434;28;20417;-66
2022/07/12 11:48:42;;;;;;;1.45;0.70;;;29.70;42.80;;;;;;5097430;28;20074;-65
2022/07/12 11:51:12;;;;;;;1.42;1.00;;;29.70;43.00;;;;;;5115014;28;20476;-65
2022/07/12 11:53:38;;;;;;;1.90;0.90;;;29.60;42.00;;;;;;5106106;28;20414;-65
2022/07/12 11:56:06;;;;;;;1.33;0.70;;;29.60;42.40;;;;;;5091150;28;20043;-68
2022/07/12 11:58:32;;;;;;;1.17;0.70;;;29.60;42.70;;;;;;5088425;28;20035;-69
2022/07/12 12:00:58;;;;;;;1.35;0.93;;;29.60;42.90;;;;;;5107250;28;20397;-71
2022/07/12 12:03:25;;;;;;;3.05;0.90;;;29.60;42.70;;;;;;5092865;28;20032;-71
2022/07/12 12:05:53;;;;;;;1.08;0.60;;;29.60;42.70;;;;;;5113523;28;20373;-71
2022/07/12 12:08:19;;;;;;;0.90;0.63;;;29.60;43.00;;;;;;5115238;28;20466;-70
2022/07/12 12:10:59;;;;;;;1.60;0.63;;;29.70;43.10;;;;;;5114745;28;20085;-70
2022/07/12 12:13:29;;;;;;;1.23;0.47;;;29.70;43.40;;;;;;5114361;28;20110;-71
2022/07/12 12:15:56;;;;;;;0.57;0.50;;;29.80;42.20;;;;;;5114567;28;20077;-71
2022/07/12 12:18:29;;;;;;;1.92;0.60;;;29.80;41.90;;;;;;5115757;28;20384;-70
2022/07/12 12:21:04;;;;;;;2.25;0.50;;;29.90;41.60;;;;;;5114307;28;20376;-71
2022/07/12 12:23:30;;;;;;;1.50;0.60;;;30.00;42.00;;;;;;5096745;28;20478;-71
2022/07/12 12:26:15;;;;;;;1.33;0.70;;;30.10;41.80;;;;;;5109901;28;20036;-70
2022/07/12 12:28:52;;;;;;;1.00;0.73;;;30.10;41.60;;;;;;5105329;28;20036;-70
2022/07/12 12:31:20;;;;;;;1.95;0.57;;;30.20;41.90;;;;;;5105525;28;20502;-70
2022/07/12 12:34:01;;;;;;;0.85;0.60;;;30.30;42.10;;;;;;5105055;28;20051;-71
2022/07/12 12:36:36;;;;;;;3.15;0.60;;;30.30;41.90;;;;;;5105874;28;20361;-71
2022/07/12 12:39:03;;;;;;;1.55;0.40;;;30.40;39.70;;;;;;5107689;28;20410;-70
2022/07/12 12:41:37;;;;;;;1.75;0.52;;;30.50;40.60;;;;;;5113378;28;20119;-70
2022/07/12 12:44:05;;;;;;;0.82;0.50;;;30.50;40.80;;;;;;5113386;28;20048;-71
2022/07/12 12:46:55;;;;;;;2.40;0.50;;;30.60;40.40;;;;;;5110171;28;20051;-71
2022/07/12 12:49:49;;;;;;;1.63;0.70;;;30.60;40.90;;;;;;5104210;28;20036;-71
2022/07/12 12:52:15;;;;;;;1.02;0.73;;;30.70;41.00;;;;;;5092038;27;20060;-71
2022/07/12 12:54:40;;;;;;;0.95;0.50;;;30.70;40.30;;;;;;5095664;28;20053;-71
2022/07/12 12:57:07;;;;;;;1.55;0.80;;;30.60;39.90;;;;;;5109701;28;20047;-71
2022/07/12 12:59:34;;;;;;;1.77;0.50;;;30.70;39.60;;;;;;5114734;28;20035;-71
2022/07/12 13:02:00;;;;;;;3.42;0.70;;;30.60;39.80;;;;;;5114792;28;20110;-72
2022/07/12 13:04:33;;;;;;;0.88;0.60;;;30.70;39.20;;;;;;5113644;28;20047;-72
2022/07/12 13:06:59;;;;;;;2.00;0.50;;;30.70;40.10;;;;;;5097353;28;20044;-71
2022/07/12 13:09:26;;;;;;;1.38;0.70;;;30.70;40.20;;;;;;5092796;28;20540;-72
2022/07/12 13:11:52;;;;;;;1.05;0.60;;;30.70;40.00;;;;;;5113707;28;20038;-72
2022/07/12 13:14:18;;;;;;;1.73;0.70;;;30.70;40.20;;;;;;5110540;28;20031;-72
2022/07/12 13:16:43;;;;;;;1.35;0.60;;;30.60;39.90;;;;;;5111587;28;20051;-71
2022/07/12 13:19:09;;;;;;;2.70;0.60;;;30.60;40.00;;;;;;5113839;27;20043;-71
2022/07/12 13:21:35;;;;;;;1.10;0.57;;;30.60;40.40;;;;;;5113429;28;20392;-71
2022/07/12 13:24:01;;;;;;;2.13;0.50;;;30.60;40.40;;;;;;5094769;28;20044;-71
2022/07/12 13:26:27;;;;;;;0.65;0.40;;;30.60;40.20;;;;;;5103060;28;20032;-71
2022/07/12 13:28:56;;;;;;;0.75;0.55;;;30.60;39.60;;;;;;5094295;28;20107;-70
2022/07/12 13:31:22;;;;;;;0.40;0.40;;;30.60;39.70;;;;;;5093125;28;20048;-71
2022/07/12 13:33:48;;;;;;;1.40;0.40;;;30.60;39.70;;;;;;5093979;28;20036;-71